sensor_id;sensor_type;location;lat;lon;timestamp;P1;durP1;ratioP1;P2;durP2;ratioP2
14088;SDS011;7120;52.890;6.040;2023-07-08T00:00:48;4.00;;;3.60;;
14088;SDS011;7120;52.890;6.040;2023-07-08T00:03:14;3.73;;;3.40;;
14088;SDS011;7120;52.890;6.040;2023-07-08T00:05:39;4.43;;;4.03;;
14088;SDS011;7120;52.890;6.040;2023-07-08T00:08:07;4.30;;;3.90;;
14088;SDS011;7120;52.890;6.040;2023-07-08T00:10:36;4.97;;;3.67;;
14088;SDS011;7120;52.890;6.040;2023-07-08T00:13:01;5.43;;;3.87;;
14088;SDS011;7120;52.890;6.040;2023-07-08T00:15:28;5.17;;;3.47;;
14088;SDS011;7120;52.890;6.040;2023-07-08T00:17:57;4.63;;;4.17;;
14088;SDS011;7120;52.890;6.040;2023-07-08T00:20:23;4.20;;;3.80;;
14088;SDS011;7120;52.890;6.040;2023-07-08T00:22:56;5.43;;;4.37;;
14088;SDS011;7120;52.890;6.040;2023-07-08T00:25:22;5.33;;;4.20;;
14088;SDS011;7120;52.890;6.040;2023-07-08T00:27:47;4.73;;;3.97;;
14088;SDS011;7120;52.890;6.040;2023-07-08T00:32:52;4.80;;;4.00;;
14088;SDS011;7120;52.890;6.040;2023-07-08T00:38:01;4.27;;;3.87;;
14088;SDS011;7120;52.890;6.040;2023-07-08T00:40:28;4.23;;;3.83;;
14088;SDS011;7120;52.890;6.040;2023-07-08T00:42:56;6.23;;;3.77;;
14088;SDS011;7120;52.890;6.040;2023-07-08T00:48:03;4.23;;;3.83;;
14088;SDS011;7120;52.890;6.040;2023-07-08T00:50:34;4.40;;;3.87;;
14088;SDS011;7120;52.890;6.040;2023-07-08T00:55:49;4.00;;;3.70;;
14088;SDS011;7120;52.890;6.040;2023-07-08T00:58:16;5.40;;;4.27;;
14088;SDS011;7120;52.890;6.040;2023-07-08T01:00:43;5.50;;;4.37;;
14088;SDS011;7120;52.890;6.040;2023-07-08T01:03:09;4.97;;;4.07;;
14088;SDS011;7120;52.890;6.040;2023-07-08T01:05:34;5.63;;;4.60;;
14088;SDS011;7120;52.890;6.040;2023-07-08T01:08:03;4.53;;;4.13;;
14088;SDS011;7120;52.890;6.040;2023-07-08T01:10:33;4.37;;;3.97;;
14088;SDS011;7120;52.890;6.040;2023-07-08T01:13:01;5.07;;;4.57;;
14088;SDS011;7120;52.890;6.040;2023-07-08T01:15:35;4.47;;;4.07;;
14088;SDS011;7120;52.890;6.040;2023-07-08T01:18:06;4.67;;;4.27;;
14088;SDS011;7120;52.890;6.040;2023-07-08T01:20:33;4.80;;;4.10;;
14088;SDS011;7120;52.890;6.040;2023-07-08T01:22:59;8.00;;;4.77;;
14088;SDS011;7120;52.890;6.040;2023-07-08T01:25:24;5.83;;;4.73;;
14088;SDS011;7120;52.890;6.040;2023-07-08T01:27:52;5.90;;;5.03;;
14088;SDS011;7120;52.890;6.040;2023-07-08T01:30:20;5.67;;;4.37;;
14088;SDS011;7120;52.890;6.040;2023-07-08T01:32:50;6.57;;;4.53;;
14088;SDS011;7120;52.890;6.040;2023-07-08T01:35:21;4.87;;;4.37;;
14088;SDS011;7120;52.890;6.040;2023-07-08T01:38:05;5.27;;;4.63;;
14088;SDS011;7120;52.890;6.040;2023-07-08T01:40:36;6.50;;;4.10;;
14088;SDS011;7120;52.890;6.040;2023-07-08T01:43:03;4.73;;;4.27;;
14088;SDS011;7120;52.890;6.040;2023-07-08T01:45:34;8.33;;;4.40;;
14088;SDS011;7120;52.890;6.040;2023-07-08T01:48:14;4.67;;;4.13;;
14088;SDS011;7120;52.890;6.040;2023-07-08T01:50:50;6.23;;;4.40;;
14088;SDS011;7120;52.890;6.040;2023-07-08T01:53:22;4.77;;;4.30;;
14088;SDS011;7120;52.890;6.040;2023-07-08T01:55:58;5.23;;;4.73;;
14088;SDS011;7120;52.890;6.040;2023-07-08T01:58:24;4.67;;;4.07;;
14088;SDS011;7120;52.890;6.040;2023-07-08T02:00:50;5.47;;;4.93;;
14088;SDS011;7120;52.890;6.040;2023-07-08T02:03:15;6.47;;;4.67;;
14088;SDS011;7120;52.890;6.040;2023-07-08T02:05:41;4.97;;;4.47;;
14088;SDS011;7120;52.890;6.040;2023-07-08T02:08:06;6.03;;;4.77;;
14088;SDS011;7120;52.890;6.040;2023-07-08T02:10:32;5.47;;;4.37;;
14088;SDS011;7120;52.890;6.040;2023-07-08T02:12:57;5.67;;;4.93;;
14088;SDS011;7120;52.890;6.040;2023-07-08T02:15:23;5.10;;;4.60;;
14088;SDS011;7120;52.890;6.040;2023-07-08T02:17:48;4.80;;;4.40;;
14088;SDS011;7120;52.890;6.040;2023-07-08T02:20:15;5.13;;;4.63;;
14088;SDS011;7120;52.890;6.040;2023-07-08T02:22:41;4.90;;;4.40;;
14088;SDS011;7120;52.890;6.040;2023-07-08T02:25:06;6.63;;;4.67;;
14088;SDS011;7120;52.890;6.040;2023-07-08T02:27:34;5.83;;;5.00;;
14088;SDS011;7120;52.890;6.040;2023-07-08T02:30:00;6.70;;;4.73;;
14088;SDS011;7120;52.890;6.040;2023-07-08T02:32:25;5.73;;;4.57;;
14088;SDS011;7120;52.890;6.040;2023-07-08T02:34:51;5.63;;;5.13;;
14088;SDS011;7120;52.890;6.040;2023-07-08T02:37:17;5.43;;;4.93;;
14088;SDS011;7120;52.890;6.040;2023-07-08T02:39:43;6.27;;;4.80;;
14088;SDS011;7120;52.890;6.040;2023-07-08T02:42:09;4.83;;;4.33;;
14088;SDS011;7120;52.890;6.040;2023-07-08T02:44:34;6.70;;;5.03;;
14088;SDS011;7120;52.890;6.040;2023-07-08T02:46:59;6.77;;;5.13;;
14088;SDS011;7120;52.890;6.040;2023-07-08T02:49:25;6.07;;;5.30;;
14088;SDS011;7120;52.890;6.040;2023-07-08T02:51:50;6.70;;;5.43;;
14088;SDS011;7120;52.890;6.040;2023-07-08T02:54:16;6.90;;;4.63;;
14088;SDS011;7120;52.890;6.040;2023-07-08T02:56:41;7.37;;;5.40;;
14088;SDS011;7120;52.890;6.040;2023-07-08T02:59:07;5.17;;;4.67;;
14088;SDS011;7120;52.890;6.040;2023-07-08T03:01:32;6.17;;;4.90;;
14088;SDS011;7120;52.890;6.040;2023-07-08T03:03:59;5.83;;;5.13;;
14088;SDS011;7120;52.890;6.040;2023-07-08T03:06:25;6.27;;;4.83;;
14088;SDS011;7120;52.890;6.040;2023-07-08T03:08:50;5.90;;;4.97;;
14088;SDS011;7120;52.890;6.040;2023-07-08T03:11:16;6.77;;;4.83;;
14088;SDS011;7120;52.890;6.040;2023-07-08T03:13:41;5.40;;;4.90;;
14088;SDS011;7120;52.890;6.040;2023-07-08T03:16:07;5.77;;;5.10;;
14088;SDS011;7120;52.890;6.040;2023-07-08T03:18:37;5.77;;;5.00;;
14088;SDS011;7120;52.890;6.040;2023-07-08T03:21:11;6.23;;;5.00;;
14088;SDS011;7120;52.890;6.040;2023-07-08T03:23:38;7.20;;;5.27;;
14088;SDS011;7120;52.890;6.040;2023-07-08T03:26:03;5.40;;;4.50;;
14088;SDS011;7120;52.890;6.040;2023-07-08T03:28:29;5.47;;;4.83;;
14088;SDS011;7120;52.890;6.040;2023-07-08T03:30:54;6.57;;;5.10;;
14088;SDS011;7120;52.890;6.040;2023-07-08T03:33:20;5.50;;;4.90;;
14088;SDS011;7120;52.890;6.040;2023-07-08T03:35:46;5.83;;;5.23;;
14088;SDS011;7120;52.890;6.040;2023-07-08T03:38:11;6.67;;;5.10;;
14088;SDS011;7120;52.890;6.040;2023-07-08T03:40:37;6.83;;;5.17;;
14088;SDS011;7120;52.890;6.040;2023-07-08T03:43:02;5.30;;;4.90;;
14088;SDS011;7120;52.890;6.040;2023-07-08T03:45:28;6.97;;;5.27;;
14088;SDS011;7120;52.890;6.040;2023-07-08T03:47:53;6.63;;;5.33;;
14088;SDS011;7120;52.890;6.040;2023-07-08T03:50:20;7.60;;;5.13;;
14088;SDS011;7120;52.890;6.040;2023-07-08T03:52:47;6.53;;;5.20;;
14088;SDS011;7120;52.890;6.040;2023-07-08T03:55:14;5.77;;;5.27;;
14088;SDS011;7120;52.890;6.040;2023-07-08T03:57:39;5.60;;;5.10;;
14088;SDS011;7120;52.890;6.040;2023-07-08T04:00:05;6.07;;;5.30;;
14088;SDS011;7120;52.890;6.040;2023-07-08T04:02:36;5.53;;;5.03;;
14088;SDS011;7120;52.890;6.040;2023-07-08T04:05:01;5.70;;;5.20;;
14088;SDS011;7120;52.890;6.040;2023-07-08T04:07:28;7.23;;;5.60;;
14088;SDS011;7120;52.890;6.040;2023-07-08T04:09:53;5.50;;;5.00;;
14088;SDS011;7120;52.890;6.040;2023-07-08T04:12:19;7.67;;;5.60;;
14088;SDS011;7120;52.890;6.040;2023-07-08T04:14:44;7.67;;;5.50;;
14088;SDS011;7120;52.890;6.040;2023-07-08T04:17:10;6.60;;;6.00;;
14088;SDS011;7120;52.890;6.040;2023-07-08T04:19:36;5.57;;;5.07;;
14088;SDS011;7120;52.890;6.040;2023-07-08T04:22:04;6.47;;;5.27;;
14088;SDS011;7120;52.890;6.040;2023-07-08T04:24:30;5.97;;;5.37;;
14088;SDS011;7120;52.890;6.040;2023-07-08T04:26:56;7.10;;;5.53;;
14088;SDS011;7120;52.890;6.040;2023-07-08T04:29:23;6.27;;;5.60;;
14088;SDS011;7120;52.890;6.040;2023-07-08T04:31:48;5.67;;;5.10;;
14088;SDS011;7120;52.890;6.040;2023-07-08T04:34:14;5.30;;;4.80;;
14088;SDS011;7120;52.890;6.040;2023-07-08T04:36:40;5.90;;;5.30;;
14088;SDS011;7120;52.890;6.040;2023-07-08T04:39:06;5.43;;;4.93;;
14088;SDS011;7120;52.890;6.040;2023-07-08T04:41:33;5.20;;;4.70;;
14088;SDS011;7120;52.890;6.040;2023-07-08T04:43:59;5.43;;;4.93;;
14088;SDS011;7120;52.890;6.040;2023-07-08T04:49:05;5.60;;;4.97;;
14088;SDS011;7120;52.890;6.040;2023-07-08T04:51:32;5.90;;;5.30;;
14088;SDS011;7120;52.890;6.040;2023-07-08T04:53:58;6.27;;;5.13;;
14088;SDS011;7120;52.890;6.040;2023-07-08T04:56:25;5.27;;;4.77;;
14088;SDS011;7120;52.890;6.040;2023-07-08T04:59:00;5.37;;;4.87;;
14088;SDS011;7120;52.890;6.040;2023-07-08T05:01:26;6.23;;;5.00;;
14088;SDS011;7120;52.890;6.040;2023-07-08T05:03:52;5.70;;;5.00;;
14088;SDS011;7120;52.890;6.040;2023-07-08T05:06:17;7.40;;;4.60;;
14088;SDS011;7120;52.890;6.040;2023-07-08T05:08:43;5.33;;;4.83;;
14088;SDS011;7120;52.890;6.040;2023-07-08T05:11:08;5.60;;;4.77;;
14088;SDS011;7120;52.890;6.040;2023-07-08T05:13:33;5.03;;;4.30;;
14088;SDS011;7120;52.890;6.040;2023-07-08T05:15:59;5.07;;;4.40;;
14088;SDS011;7120;52.890;6.040;2023-07-08T05:18:24;5.27;;;4.40;;
14088;SDS011;7120;52.890;6.040;2023-07-08T05:20:50;5.07;;;4.57;;
14088;SDS011;7120;52.890;6.040;2023-07-08T05:23:16;4.70;;;4.30;;
14088;SDS011;7120;52.890;6.040;2023-07-08T05:25:42;5.73;;;4.67;;
14088;SDS011;7120;52.890;6.040;2023-07-08T05:28:08;4.33;;;3.93;;
14088;SDS011;7120;52.890;6.040;2023-07-08T05:30:34;5.90;;;4.97;;
14088;SDS011;7120;52.890;6.040;2023-07-08T05:33:00;6.87;;;4.40;;
14088;SDS011;7120;52.890;6.040;2023-07-08T05:35:25;5.00;;;4.10;;
14088;SDS011;7120;52.890;6.040;2023-07-08T05:37:50;5.40;;;3.60;;
14088;SDS011;7120;52.890;6.040;2023-07-08T05:40:16;4.87;;;4.37;;
14088;SDS011;7120;52.890;6.040;2023-07-08T05:42:41;4.17;;;3.87;;
14088;SDS011;7120;52.890;6.040;2023-07-08T05:45:07;5.77;;;4.47;;
14088;SDS011;7120;52.890;6.040;2023-07-08T05:47:35;4.70;;;4.30;;
14088;SDS011;7120;52.890;6.040;2023-07-08T05:50:01;4.67;;;4.27;;
14088;SDS011;7120;52.890;6.040;2023-07-08T05:52:26;4.13;;;3.77;;
14088;SDS011;7120;52.890;6.040;2023-07-08T05:54:51;4.83;;;4.43;;
14088;SDS011;7120;52.890;6.040;2023-07-08T05:57:17;4.63;;;4.23;;
14088;SDS011;7120;52.890;6.040;2023-07-08T05:59:42;5.70;;;4.33;;
14088;SDS011;7120;52.890;6.040;2023-07-08T06:02:11;5.87;;;4.50;;
14088;SDS011;7120;52.890;6.040;2023-07-08T06:04:37;4.63;;;4.23;;
14088;SDS011;7120;52.890;6.040;2023-07-08T06:07:03;4.70;;;4.20;;
14088;SDS011;7120;52.890;6.040;2023-07-08T06:09:28;4.10;;;3.80;;
14088;SDS011;7120;52.890;6.040;2023-07-08T06:11:53;7.37;;;4.10;;
14088;SDS011;7120;52.890;6.040;2023-07-08T06:14:19;4.40;;;4.00;;
14088;SDS011;7120;52.890;6.040;2023-07-08T06:16:44;4.03;;;3.63;;
14088;SDS011;7120;52.890;6.040;2023-07-08T06:19:10;4.20;;;3.73;;
14088;SDS011;7120;52.890;6.040;2023-07-08T06:21:35;5.53;;;4.07;;
14088;SDS011;7120;52.890;6.040;2023-07-08T06:24:01;4.23;;;3.83;;
14088;SDS011;7120;52.890;6.040;2023-07-08T06:26:26;4.27;;;3.87;;
14088;SDS011;7120;52.890;6.040;2023-07-08T06:28:51;3.80;;;3.50;;
14088;SDS011;7120;52.890;6.040;2023-07-08T06:31:17;4.20;;;3.80;;
14088;SDS011;7120;52.890;6.040;2023-07-08T06:33:42;3.90;;;3.60;;
14088;SDS011;7120;52.890;6.040;2023-07-08T06:36:08;4.10;;;3.70;;
14088;SDS011;7120;52.890;6.040;2023-07-08T06:38:33;4.47;;;3.50;;
14088;SDS011;7120;52.890;6.040;2023-07-08T06:40:59;3.47;;;3.17;;
14088;SDS011;7120;52.890;6.040;2023-07-08T06:43:24;3.60;;;3.30;;
14088;SDS011;7120;52.890;6.040;2023-07-08T06:45:50;5.53;;;3.67;;
14088;SDS011;7120;52.890;6.040;2023-07-08T06:48:15;3.87;;;3.57;;
14088;SDS011;7120;52.890;6.040;2023-07-08T06:50:42;4.03;;;3.60;;
14088;SDS011;7120;52.890;6.040;2023-07-08T06:53:09;4.43;;;4.03;;
14088;SDS011;7120;52.890;6.040;2023-07-08T06:55:34;3.50;;;3.20;;
14088;SDS011;7120;52.890;6.040;2023-07-08T06:58:00;3.63;;;3.27;;
14088;SDS011;7120;52.890;6.040;2023-07-08T07:00:25;3.93;;;3.33;;
14088;SDS011;7120;52.890;6.040;2023-07-08T07:02:51;5.87;;;3.17;;
14088;SDS011;7120;52.890;6.040;2023-07-08T07:05:16;3.70;;;3.40;;
14088;SDS011;7120;52.890;6.040;2023-07-08T07:07:42;6.30;;;3.30;;
14088;SDS011;7120;52.890;6.040;2023-07-08T07:10:07;4.10;;;3.50;;
14088;SDS011;7120;52.890;6.040;2023-07-08T07:12:33;3.53;;;3.00;;
14088;SDS011;7120;52.890;6.040;2023-07-08T07:14:59;3.03;;;2.73;;
14088;SDS011;7120;52.890;6.040;2023-07-08T07:17:25;3.00;;;2.70;;
14088;SDS011;7120;52.890;6.040;2023-07-08T07:19:52;3.27;;;2.97;;
14088;SDS011;7120;52.890;6.040;2023-07-08T07:22:18;3.13;;;2.83;;
14088;SDS011;7120;52.890;6.040;2023-07-08T07:24:43;4.17;;;2.87;;
14088;SDS011;7120;52.890;6.040;2023-07-08T07:27:09;3.20;;;3.00;;
14088;SDS011;7120;52.890;6.040;2023-07-08T07:29:42;4.80;;;3.23;;
14088;SDS011;7120;52.890;6.040;2023-07-08T07:32:09;3.20;;;2.90;;
14088;SDS011;7120;52.890;6.040;2023-07-08T07:34:35;3.13;;;2.83;;
14088;SDS011;7120;52.890;6.040;2023-07-08T07:37:01;2.93;;;2.60;;
14088;SDS011;7120;52.890;6.040;2023-07-08T07:39:26;4.72;;;3.00;;
14088;SDS011;7120;52.890;6.040;2023-07-08T07:41:53;4.65;;;2.95;;
14088;SDS011;7120;52.890;6.040;2023-07-08T07:44:19;2.63;;;2.42;;
14088;SDS011;7120;52.890;6.040;2023-07-08T07:46:44;3.60;;;3.30;;
14088;SDS011;7120;52.890;6.040;2023-07-08T07:49:09;3.35;;;3.08;;
14088;SDS011;7120;52.890;6.040;2023-07-08T07:51:35;3.17;;;2.85;;
14088;SDS011;7120;52.890;6.040;2023-07-08T07:54:00;4.03;;;3.30;;
14088;SDS011;7120;52.890;6.040;2023-07-08T07:56:26;4.05;;;3.00;;
14088;SDS011;7120;52.890;6.040;2023-07-08T07:58:52;3.00;;;2.80;;
14088;SDS011;7120;52.890;6.040;2023-07-08T08:01:18;3.55;;;2.65;;
14088;SDS011;7120;52.890;6.040;2023-07-08T08:03:44;4.40;;;2.58;;
14088;SDS011;7120;52.890;6.040;2023-07-08T08:06:10;3.45;;;3.03;;
14088;SDS011;7120;52.890;6.040;2023-07-08T08:08:35;2.75;;;2.55;;
14088;SDS011;7120;52.890;6.040;2023-07-08T08:11:01;2.75;;;2.50;;
14088;SDS011;7120;52.890;6.040;2023-07-08T08:13:26;2.80;;;2.60;;
14088;SDS011;7120;52.890;6.040;2023-07-08T08:15:56;3.38;;;3.08;;
14088;SDS011;7120;52.890;6.040;2023-07-08T08:18:22;3.88;;;2.90;;
14088;SDS011;7120;52.890;6.040;2023-07-08T08:20:49;2.83;;;2.63;;
14088;SDS011;7120;52.890;6.040;2023-07-08T08:23:16;2.92;;;2.63;;
14088;SDS011;7120;52.890;6.040;2023-07-08T08:25:41;3.65;;;2.88;;
14088;SDS011;7120;52.890;6.040;2023-07-08T08:28:06;3.08;;;2.88;;
14088;SDS011;7120;52.890;6.040;2023-07-08T08:30:32;4.40;;;3.10;;
14088;SDS011;7120;52.890;6.040;2023-07-08T08:32:58;2.90;;;2.70;;
14088;SDS011;7120;52.890;6.040;2023-07-08T08:35:24;3.03;;;2.80;;
14088;SDS011;7120;52.890;6.040;2023-07-08T08:37:50;3.58;;;2.90;;
14088;SDS011;7120;52.890;6.040;2023-07-08T08:40:16;5.10;;;3.25;;
14088;SDS011;7120;52.890;6.040;2023-07-08T08:42:43;3.00;;;2.80;;
14088;SDS011;7120;52.890;6.040;2023-07-08T08:45:15;2.90;;;2.70;;
14088;SDS011;7120;52.890;6.040;2023-07-08T08:47:45;3.17;;;2.85;;
14088;SDS011;7120;52.890;6.040;2023-07-08T08:52:53;3.22;;;2.92;;
14088;SDS011;7120;52.890;6.040;2023-07-08T08:55:21;3.28;;;3.08;;
14088;SDS011;7120;52.890;6.040;2023-07-08T09:00:29;3.17;;;2.85;;
14088;SDS011;7120;52.890;6.040;2023-07-08T09:05:36;3.00;;;2.70;;
14088;SDS011;7120;52.890;6.040;2023-07-08T09:08:04;3.28;;;2.97;;
14088;SDS011;7120;52.890;6.040;2023-07-08T09:10:43;3.10;;;2.90;;
14088;SDS011;7120;52.890;6.040;2023-07-08T09:13:24;4.00;;;2.95;;
14088;SDS011;7120;52.890;6.040;2023-07-08T09:15:54;4.82;;;3.28;;
14088;SDS011;7120;52.890;6.040;2023-07-08T09:18:27;3.60;;;3.30;;
14088;SDS011;7120;52.890;6.040;2023-07-08T09:21:03;3.08;;;2.78;;
14088;SDS011;7120;52.890;6.040;2023-07-08T09:23:38;3.00;;;2.80;;
14088;SDS011;7120;52.890;6.040;2023-07-08T09:26:06;3.15;;;2.85;;
14088;SDS011;7120;52.890;6.040;2023-07-08T09:28:39;3.25;;;2.95;;
14088;SDS011;7120;52.890;6.040;2023-07-08T09:31:08;3.40;;;3.10;;
14088;SDS011;7120;52.890;6.040;2023-07-08T09:33:43;3.78;;;3.20;;
14088;SDS011;7120;52.890;6.040;2023-07-08T09:36:18;3.65;;;3.38;;
14088;SDS011;7120;52.890;6.040;2023-07-08T09:38:49;4.18;;;3.35;;
14088;SDS011;7120;52.890;6.040;2023-07-08T09:41:29;3.90;;;3.50;;
14088;SDS011;7120;52.890;6.040;2023-07-08T09:44:06;3.38;;;3.08;;
14088;SDS011;7120;52.890;6.040;2023-07-08T09:46:43;3.40;;;3.08;;
14088;SDS011;7120;52.890;6.040;2023-07-08T09:49:14;3.33;;;3.05;;
14088;SDS011;7120;52.890;6.040;2023-07-08T09:51:42;3.58;;;3.28;;
14088;SDS011;7120;52.890;6.040;2023-07-08T09:54:08;3.58;;;3.28;;
14088;SDS011;7120;52.890;6.040;2023-07-08T09:56:34;4.07;;;3.00;;
14088;SDS011;7120;52.890;6.040;2023-07-08T09:59:04;4.18;;;3.88;;
14088;SDS011;7120;52.890;6.040;2023-07-08T10:01:29;3.17;;;2.97;;
14088;SDS011;7120;52.890;6.040;2023-07-08T10:03:58;3.65;;;3.30;;
14088;SDS011;7120;52.890;6.040;2023-07-08T10:06:25;3.88;;;3.47;;
14088;SDS011;7120;52.890;6.040;2023-07-08T10:09:00;3.70;;;3.40;;
14088;SDS011;7120;52.890;6.040;2023-07-08T10:11:30;3.25;;;2.95;;
14088;SDS011;7120;52.890;6.040;2023-07-08T10:14:04;3.63;;;3.15;;
14088;SDS011;7120;52.890;6.040;2023-07-08T10:16:34;3.80;;;3.50;;
14088;SDS011;7120;52.890;6.040;2023-07-08T10:19:00;4.07;;;3.67;;
14088;SDS011;7120;52.890;6.040;2023-07-08T10:22:34;3.97;;;3.50;;
14088;SDS011;7120;52.890;6.040;2023-07-08T10:27:32;3.60;;;3.30;;
14088;SDS011;7120;52.890;6.040;2023-07-08T10:30:19;5.20;;;3.35;;
14088;SDS011;7120;52.890;6.040;2023-07-08T10:35:34;3.38;;;3.08;;
14088;SDS011;7120;52.890;6.040;2023-07-08T10:40:54;4.13;;;3.20;;
14088;SDS011;7120;52.890;6.040;2023-07-08T10:43:38;3.72;;;3.42;;
14088;SDS011;7120;52.890;6.040;2023-07-08T10:51:50;4.72;;;3.13;;
14088;SDS011;7120;52.890;6.040;2023-07-08T10:56:54;3.60;;;3.30;;
14088;SDS011;7120;52.890;6.040;2023-07-08T11:07:14;3.45;;;3.15;;
14088;SDS011;7120;52.890;6.040;2023-07-08T11:09:49;3.50;;;3.20;;
14088;SDS011;7120;52.890;6.040;2023-07-08T11:12:26;4.07;;;3.70;;
14088;SDS011;7120;52.890;6.040;2023-07-08T11:14:59;3.40;;;3.10;;
14088;SDS011;7120;52.890;6.040;2023-07-08T11:17:37;3.85;;;3.50;;
14088;SDS011;7120;52.890;6.040;2023-07-08T11:22:47;4.28;;;3.20;;
14088;SDS011;7120;52.890;6.040;2023-07-08T11:25:19;3.75;;;3.45;;
14088;SDS011;7120;52.890;6.040;2023-07-08T11:27:46;3.80;;;3.40;;
14088;SDS011;7120;52.890;6.040;2023-07-08T11:30:17;3.83;;;3.45;;
14088;SDS011;7120;52.890;6.040;2023-07-08T11:32:52;3.30;;;3.03;;
14088;SDS011;7120;52.890;6.040;2023-07-08T11:36:06;4.13;;;3.05;;
14088;SDS011;7120;52.890;6.040;2023-07-08T11:38:19;3.50;;;3.20;;
14088;SDS011;7120;52.890;6.040;2023-07-08T11:41:02;3.50;;;3.20;;
14088;SDS011;7120;52.890;6.040;2023-07-08T11:46:24;3.42;;;3.13;;
14088;SDS011;7120;52.890;6.040;2023-07-08T11:48:54;3.60;;;3.30;;
14088;SDS011;7120;52.890;6.040;2023-07-08T11:51:23;4.43;;;3.22;;
14088;SDS011;7120;52.890;6.040;2023-07-08T11:54:09;3.20;;;3.00;;
14088;SDS011;7120;52.890;6.040;2023-07-08T11:57:04;4.50;;;3.58;;
14088;SDS011;7120;52.890;6.040;2023-07-08T11:59:32;3.90;;;3.60;;
14088;SDS011;7120;52.890;6.040;2023-07-08T12:02:03;5.88;;;3.60;;
14088;SDS011;7120;52.890;6.040;2023-07-08T12:07:28;3.78;;;3.47;;
14088;SDS011;7120;52.890;6.040;2023-07-08T12:12:25;3.55;;;3.25;;
14088;SDS011;7120;52.890;6.040;2023-07-08T12:15:00;3.65;;;3.35;;
14088;SDS011;7120;52.890;6.040;2023-07-08T12:17:34;4.30;;;3.90;;
14088;SDS011;7120;52.890;6.040;2023-07-08T12:20:01;4.18;;;3.78;;
14088;SDS011;7120;52.890;6.040;2023-07-08T12:22:28;5.18;;;3.95;;
14088;SDS011;7120;52.890;6.040;2023-07-08T12:24:53;4.70;;;4.07;;
14088;SDS011;7120;52.890;6.040;2023-07-08T12:27:21;4.30;;;4.00;;
14088;SDS011;7120;52.890;6.040;2023-07-08T12:29:46;3.95;;;3.65;;
14088;SDS011;7120;52.890;6.040;2023-07-08T12:32:12;3.75;;;3.45;;
14088;SDS011;7120;52.890;6.040;2023-07-08T12:34:39;4.13;;;3.75;;
14088;SDS011;7120;52.890;6.040;2023-07-08T12:37:04;4.20;;;3.90;;
14088;SDS011;7120;52.890;6.040;2023-07-08T12:39:36;4.03;;;3.72;;
14088;SDS011;7120;52.890;6.040;2023-07-08T12:42:07;4.28;;;3.97;;
14088;SDS011;7120;52.890;6.040;2023-07-08T12:44:35;4.28;;;3.88;;
14088;SDS011;7120;52.890;6.040;2023-07-08T12:47:02;4.32;;;3.92;;
14088;SDS011;7120;52.890;6.040;2023-07-08T12:49:28;4.30;;;3.90;;
14088;SDS011;7120;52.890;6.040;2023-07-08T12:51:54;5.10;;;4.15;;
14088;SDS011;7120;52.890;6.040;2023-07-08T12:54:20;5.10;;;4.60;;
14088;SDS011;7120;52.890;6.040;2023-07-08T12:56:47;4.80;;;4.43;;
14088;SDS011;7120;52.890;6.040;2023-07-08T12:59:19;5.07;;;4.57;;
14088;SDS011;7120;52.890;6.040;2023-07-08T13:01:46;5.53;;;5.00;;
14088;SDS011;7120;52.890;6.040;2023-07-08T13:04:13;5.03;;;4.32;;
14088;SDS011;7120;52.890;6.040;2023-07-08T13:06:39;5.25;;;4.50;;
14088;SDS011;7120;52.890;6.040;2023-07-08T13:09:18;4.95;;;4.55;;
14088;SDS011;7120;52.890;6.040;2023-07-08T13:11:55;4.90;;;4.50;;
14088;SDS011;7120;52.890;6.040;2023-07-08T13:14:22;5.20;;;4.70;;
14088;SDS011;7120;52.890;6.040;2023-07-08T13:16:49;5.40;;;4.93;;
14088;SDS011;7120;52.890;6.040;2023-07-08T13:19:15;4.85;;;4.45;;
14088;SDS011;7120;52.890;6.040;2023-07-08T13:21:41;5.22;;;4.65;;
14088;SDS011;7120;52.890;6.040;2023-07-08T13:24:09;4.90;;;4.50;;
14088;SDS011;7120;52.890;6.040;2023-07-08T13:26:38;5.13;;;4.68;;
14088;SDS011;7120;52.890;6.040;2023-07-08T13:29:09;5.60;;;4.93;;
14088;SDS011;7120;52.890;6.040;2023-07-08T13:31:38;5.93;;;4.80;;
14088;SDS011;7120;52.890;6.040;2023-07-08T13:34:09;5.15;;;4.65;;
14088;SDS011;7120;52.890;6.040;2023-07-08T13:36:40;4.60;;;4.25;;
14088;SDS011;7120;52.890;6.040;2023-07-08T13:39:09;5.18;;;4.65;;
14088;SDS011;7120;52.890;6.040;2023-07-08T13:41:41;4.72;;;4.32;;
14088;SDS011;7120;52.890;6.040;2023-07-08T13:44:09;4.90;;;4.50;;
14088;SDS011;7120;52.890;6.040;2023-07-08T13:46:38;5.22;;;4.72;;
14088;SDS011;7120;52.890;6.040;2023-07-08T13:49:23;4.68;;;4.28;;
14088;SDS011;7120;52.890;6.040;2023-07-08T13:54:38;6.22;;;4.35;;
14088;SDS011;7120;52.890;6.040;2023-07-08T13:57:19;5.07;;;4.60;;
14088;SDS011;7120;52.890;6.040;2023-07-08T13:59:47;4.93;;;4.53;;
14088;SDS011;7120;52.890;6.040;2023-07-08T14:02:14;5.05;;;4.65;;
14088;SDS011;7120;52.890;6.040;2023-07-08T14:04:42;5.70;;;5.10;;
14088;SDS011;7120;52.890;6.040;2023-07-08T14:07:11;5.47;;;4.85;;
14088;SDS011;7120;52.890;6.040;2023-07-08T14:09:41;5.28;;;4.82;;
14088;SDS011;7120;52.890;6.040;2023-07-08T14:12:06;6.43;;;4.82;;
14088;SDS011;7120;52.890;6.040;2023-07-08T14:14:32;5.68;;;5.28;;
14088;SDS011;7120;52.890;6.040;2023-07-08T14:16:57;5.43;;;5.03;;
14088;SDS011;7120;52.890;6.040;2023-07-08T14:19:41;5.30;;;4.80;;
14088;SDS011;7120;52.890;6.040;2023-07-08T14:24:38;7.00;;;5.88;;
14088;SDS011;7120;52.890;6.040;2023-07-08T14:27:08;5.47;;;5.03;;
14088;SDS011;7120;52.890;6.040;2023-07-08T14:29:39;5.18;;;4.68;;
14088;SDS011;7120;52.890;6.040;2023-07-08T14:32:07;5.70;;;5.00;;
14088;SDS011;7120;52.890;6.040;2023-07-08T14:34:38;6.38;;;5.63;;
14088;SDS011;7120;52.890;6.040;2023-07-08T14:37:07;5.78;;;5.28;;
14088;SDS011;7120;52.890;6.040;2023-07-08T14:39:38;5.70;;;5.20;;
14088;SDS011;7120;52.890;6.040;2023-07-08T14:42:04;5.43;;;4.93;;
14088;SDS011;7120;52.890;6.040;2023-07-08T14:44:34;5.90;;;5.35;;
14088;SDS011;7120;52.890;6.040;2023-07-08T14:47:01;4.95;;;4.55;;
14088;SDS011;7120;52.890;6.040;2023-07-08T14:49:26;5.50;;;5.00;;
14088;SDS011;7120;52.890;6.040;2023-07-08T14:51:53;5.47;;;4.97;;
14088;SDS011;7120;52.890;6.040;2023-07-08T14:54:19;6.05;;;4.80;;
14088;SDS011;7120;52.890;6.040;2023-07-08T14:56:46;5.53;;;5.03;;
14088;SDS011;7120;52.890;6.040;2023-07-08T14:59:17;5.45;;;5.00;;
14088;SDS011;7120;52.890;6.040;2023-07-08T15:01:45;5.28;;;4.78;;
14088;SDS011;7120;52.890;6.040;2023-07-08T15:04:11;5.55;;;5.05;;
14088;SDS011;7120;52.890;6.040;2023-07-08T15:06:37;6.13;;;5.18;;
14088;SDS011;7120;52.890;6.040;2023-07-08T15:09:02;5.22;;;4.72;;
14088;SDS011;7120;52.890;6.040;2023-07-08T15:11:28;5.78;;;5.00;;
14088;SDS011;7120;52.890;6.040;2023-07-08T15:13:54;5.38;;;4.93;;
14088;SDS011;7120;52.890;6.040;2023-07-08T15:16:19;5.00;;;4.60;;
14088;SDS011;7120;52.890;6.040;2023-07-08T15:18:45;5.95;;;5.25;;
14088;SDS011;7120;52.890;6.040;2023-07-08T15:21:14;5.72;;;5.07;;
14088;SDS011;7120;52.890;6.040;2023-07-08T15:23:40;6.22;;;5.40;;
14088;SDS011;7120;52.890;6.040;2023-07-08T15:26:09;5.82;;;5.20;;
14088;SDS011;7120;52.890;6.040;2023-07-08T15:31:23;7.07;;;5.07;;
14088;SDS011;7120;52.890;6.040;2023-07-08T15:33:51;5.57;;;5.07;;
14088;SDS011;7120;52.890;6.040;2023-07-08T15:36:17;5.75;;;5.25;;
14088;SDS011;7120;52.890;6.040;2023-07-08T15:38:43;5.88;;;5.28;;
14088;SDS011;7120;52.890;6.040;2023-07-08T15:41:30;5.75;;;5.25;;
14088;SDS011;7120;52.890;6.040;2023-07-08T15:43:55;5.47;;;4.97;;
14088;SDS011;7120;52.890;6.040;2023-07-08T15:46:21;5.40;;;4.90;;
14088;SDS011;7120;52.890;6.040;2023-07-08T15:48:52;5.53;;;5.03;;
14088;SDS011;7120;52.890;6.040;2023-07-08T15:51:18;5.18;;;4.68;;
14088;SDS011;7120;52.890;6.040;2023-07-08T15:53:43;5.63;;;4.95;;
14088;SDS011;7120;52.890;6.040;2023-07-08T15:56:14;6.15;;;4.95;;
14088;SDS011;7120;52.890;6.040;2023-07-08T15:58:43;5.40;;;4.90;;
14088;SDS011;7120;52.890;6.040;2023-07-08T16:01:16;6.13;;;5.10;;
14088;SDS011;7120;52.890;6.040;2023-07-08T16:03:45;5.70;;;5.20;;
14088;SDS011;7120;52.890;6.040;2023-07-08T16:06:10;5.22;;;4.72;;
14088;SDS011;7120;52.890;6.040;2023-07-08T16:08:36;5.00;;;4.47;;
14088;SDS011;7120;52.890;6.040;2023-07-08T16:11:02;5.50;;;5.00;;